KSPF/SPF METAR and TAF weather

Enter ICAO airport designator
Station Type Date Time Source
KSPF METAR 2021/05/11 01:35 UTC NOAA

KSPF 110135Z AUTO 12008KT 10SM OVC070 08/00 A3022 RMK AO2 PWINO


Station Type Date Time Source
KSPF Decoded METAR 2021/05/11 01:35 UTC NOAA

Spearfish / Clyde Ice, SD, United States (KSPF) 44-29N 103-47W
May 10, 2021 - 09:35 PM EDT / 2021.05.11 0135 UTC
Wind: from the ESE (120 degrees) at 9 MPH (8 KT):0
Visibility: 10 mile(s):0
Sky conditions: overcast
Temperature: 46 F (8 C)
Dew Point: 32 F (0 C)
Relative Humidity: 56%
Pressure (altimeter): 30.22 in. Hg (1023 hPa)
ob: KSPF 110135Z AUTO 12008KT 10SM OVC070 08/00 A3022 RMK AO2 PWINO
cycle: 1

Station Type Date Time Source
KSPF TAF UTC NOAA

Error!

Example: see airport list